Time;durP1;ratioP1;P1;durP2;ratioP2;P2;SDS_P1;SDS_P2;PMS_P1;PMS_P2;Temp;Humidity;BMP_temperature;BMP_pressure;BME280_temperature;BME280_humidity;BME280_pressure;Samples;Min_cycle;Max_cycle;Signal;HPM_P1;HPM_P2
2022/12/12 00:00:21;;;;;;;73.90;31.63;;;-7.10;99.90;;;;;;4954430;28;20063;-75
2022/12/12 00:02:47;;;;;;;76.38;32.88;;;-7.20;99.90;;;;;;4970123;28;20031;-76
2022/12/12 00:05:17;;;;;;;69.70;31.85;;;-7.30;99.90;;;;;;4955451;28;20043;-76
2022/12/12 00:07:43;;;;;;;68.50;29.83;;;-7.40;99.90;;;;;;4954293;29;20129;-75
2022/12/12 00:10:09;;;;;;;61.15;28.52;;;-7.50;99.90;;;;;;4955690;28;20027;-75
2022/12/12 00:12:35;;;;;;;84.80;31.48;;;-7.50;99.90;;;;;;4954236;29;20458;-75
2022/12/12 00:15:01;;;;;;;70.45;30.48;;;-7.60;99.90;;;;;;4954942;28;20039;-75
2022/12/12 00:17:26;;;;;;;73.43;30.80;;;-7.60;99.90;;;;;;4954091;28;20483;-75
2022/12/12 00:19:52;;;;;;;72.13;29.88;;;-7.70;99.90;;;;;;4955417;28;20032;-75
2022/12/12 00:22:17;;;;;;;66.95;29.20;;;-7.80;99.90;;;;;;4954920;28;20027;-76
2022/12/12 00:24:43;;;;;;;72.25;29.13;;;-7.80;99.90;;;;;;4955452;28;20027;-75
2022/12/12 00:27:08;;;;;;;73.90;29.30;;;-7.80;99.90;;;;;;4955554;28;20031;-75
2022/12/12 00:29:34;;;;;;;71.10;30.20;;;-7.80;99.90;;;;;;4955391;28;20082;-75
2022/12/12 00:32:00;;;;;;;76.35;29.95;;;-7.80;99.90;;;;;;4953583;29;20023;-75
2022/12/12 00:34:25;;;;;;;76.43;31.77;;;-7.90;99.90;;;;;;4954022;29;20509;-75
2022/12/12 00:36:51;;;;;;;81.43;32.05;;;-7.90;99.90;;;;;;4955107;28;20026;-75
2022/12/12 00:39:17;;;;;;;82.95;34.20;;;-8.00;99.90;;;;;;4973544;28;20027;-75
2022/12/12 00:41:43;;;;;;;68.47;30.42;;;-8.00;99.90;;;;;;4958554;28;20513;-75
2022/12/12 00:44:09;;;;;;;73.28;30.65;;;-8.00;99.90;;;;;;4973455;28;20027;-75
2022/12/12 00:46:34;;;;;;;71.95;31.83;;;-8.00;99.90;;;;;;4957534;29;20027;-75
2022/12/12 00:49:00;;;;;;;77.20;29.38;;;-8.00;99.90;;;;;;4959086;28;20107;-75
2022/12/12 00:51:28;;;;;;;68.65;29.15;;;-8.00;99.90;;;;;;4958871;28;20047;-75
2022/12/12 00:53:55;;;;;;;70.82;30.70;;;-8.00;99.90;;;;;;4957008;28;20050;-75
2022/12/12 00:56:22;;;;;;;80.25;31.67;;;-8.00;99.90;;;;;;4958039;28;20038;-75
2022/12/12 00:58:48;;;;;;;69.65;31.75;;;-8.00;99.90;;;;;;4958604;28;20023;-75
2022/12/12 01:01:20;;;;;;;76.50;31.75;;;-8.00;99.90;;;;;;4958469;28;20471;-75
2022/12/12 01:03:46;;;;;;;69.32;31.85;;;-8.00;99.90;;;;;;4973482;28;20027;-76
2022/12/12 01:06:12;;;;;;;76.88;29.63;;;-8.00;99.90;;;;;;4957996;28;20174;-75
2022/12/12 01:08:39;;;;;;;77.13;30.67;;;-8.00;99.90;;;;;;4958822;28;20026;-75
2022/12/12 01:11:06;;;;;;;83.75;32.45;;;-8.00;99.90;;;;;;4957572;29;20046;-75
2022/12/12 01:13:31;;;;;;;78.35;31.48;;;-8.00;99.90;;;;;;4957773;28;20161;-75
2022/12/12 01:15:57;;;;;;;77.25;32.22;;;-8.00;99.90;;;;;;4958752;28;20054;-75
2022/12/12 01:18:23;;;;;;;71.80;29.75;;;-8.00;99.90;;;;;;4956995;29;20042;-75
2022/12/12 01:20:48;;;;;;;74.60;29.38;;;-8.00;99.90;;;;;;4958462;28;20039;-75
2022/12/12 01:23:14;;;;;;;74.20;31.65;;;-8.00;99.90;;;;;;4957736;28;20019;-75
2022/12/12 01:25:40;;;;;;;70.78;29.48;;;-8.10;99.90;;;;;;4958394;28;20070;-75
2022/12/12 01:28:06;;;;;;;73.00;29.40;;;-8.10;99.90;;;;;;4957064;29;20483;-75
2022/12/12 01:30:32;;;;;;;82.00;32.58;;;-8.10;99.90;;;;;;4957244;29;20062;-75
2022/12/12 01:32:57;;;;;;;84.07;33.30;;;-8.10;99.90;;;;;;4973367;28;20027;-75
2022/12/12 01:35:24;;;;;;;82.63;33.50;;;-8.10;99.90;;;;;;4973188;28;20028;-76
2022/12/12 01:37:50;;;;;;;82.50;33.40;;;-8.10;99.90;;;;;;4972566;28;20089;-75
2022/12/12 01:40:19;;;;;;;93.10;35.42;;;-8.00;99.90;;;;;;4973951;28;20110;-75
2022/12/12 01:42:45;;;;;;;91.35;32.72;;;-8.00;99.90;;;;;;4959001;28;20024;-75
2022/12/12 01:45:48;;;;;;;83.30;33.83;;;-8.10;99.90;;;;;;4958222;28;20027;-76
2022/12/12 01:48:14;;;;;;;79.88;32.67;;;-8.10;99.90;;;;;;4958867;28;20089;-75
2022/12/12 01:50:41;;;;;;;89.90;32.85;;;-8.10;99.90;;;;;;4957978;28;20578;-75
2022/12/12 01:53:08;;;;;;;85.97;33.85;;;-8.10;99.90;;;;;;4957418;29;20097;-75
2022/12/12 01:55:34;;;;;;;95.05;33.40;;;-8.20;99.90;;;;;;4957953;29;20029;-75
2022/12/12 01:58:00;;;;;;;81.03;34.65;;;-8.20;99.90;;;;;;4958389;28;20031;-75
2022/12/12 02:00:25;;;;;;;84.22;32.90;;;-8.20;99.90;;;;;;4958201;29;20034;-75
2022/12/12 02:02:54;;;;;;;84.93;34.33;;;-8.10;99.90;;;;;;4959987;28;20023;-75
2022/12/12 02:05:29;;;;;;;74.88;30.33;;;-8.10;99.90;;;;;;4959568;28;20074;-76
2022/12/12 02:07:58;;;;;;;76.55;32.63;;;-8.10;99.90;;;;;;4960636;28;20031;-76
2022/12/12 02:10:23;;;;;;;89.50;34.67;;;-8.10;99.90;;;;;;4958691;29;20164;-75
2022/12/12 02:12:49;;;;;;;74.45;31.70;;;-8.20;99.90;;;;;;4974645;28;20100;-75
2022/12/12 02:15:16;;;;;;;82.18;32.17;;;-8.30;99.90;;;;;;4958728;29;20031;-75
2022/12/12 02:17:55;;;;;;;75.57;32.63;;;-8.30;99.90;;;;;;4972755;28;20054;-76
2022/12/12 02:20:40;;;;;;;80.32;31.77;;;-8.30;99.90;;;;;;4972896;28;20034;-76
2022/12/12 02:23:24;;;;;;;72.43;28.30;;;-8.30;99.90;;;;;;4958898;29;20059;-76
2022/12/12 02:26:17;;;;;;;77.30;31.67;;;-8.40;99.90;;;;;;4958636;28;20058;-75
2022/12/12 02:29:12;;;;;;;75.60;30.83;;;-8.40;99.90;;;;;;4959718;28;20134;-76
2022/12/12 02:32:08;;;;;;;75.05;28.83;;;-8.40;99.90;;;;;;4959791;28;20107;-75
2022/12/12 02:35:02;;;;;;;66.28;28.30;;;-8.60;99.90;;;;;;4959055;28;20043;-75
2022/12/12 02:37:31;;;;;;;82.78;30.73;;;-8.60;99.90;;;;;;4958998;28;20162;-75
2022/12/12 02:40:24;;;;;;;73.30;29.20;;;-8.70;99.90;;;;;;4958362;28;20027;-76
2022/12/12 02:43:24;;;;;;;78.35;31.27;;;-8.70;99.90;;;;;;4974229;28;20510;-75
2022/12/12 02:45:56;;;;;;;78.18;31.63;;;-8.70;99.90;;;;;;4958451;29;20126;-75
2022/12/12 02:48:36;;;;;;;78.95;31.45;;;-8.70;99.90;;;;;;4961048;28;20035;-76
2022/12/12 02:51:05;;;;;;;69.25;30.55;;;-8.60;99.90;;;;;;4979332;28;20038;-76
2022/12/12 02:53:31;;;;;;;92.50;34.92;;;-8.60;99.90;;;;;;4979266;28;20042;-75
2022/12/12 02:56:05;;;;;;;86.18;32.63;;;-8.50;99.90;;;;;;4978436;28;20505;-75
2022/12/12 02:58:33;;;;;;;81.65;32.53;;;-8.40;99.90;;;;;;4979258;28;20090;-75
2022/12/12 03:01:19;;;;;;;77.35;32.40;;;-8.50;99.90;;;;;;4979091;28;20027;-75
2022/12/12 03:09:53;;;;;;;90.15;34.72;;;-8.20;99.90;;;;;;4981950;28;20068;-75
2022/12/12 03:12:39;;;;;;;80.50;31.98;;;-8.20;99.90;;;;;;4978910;28;20030;-75
2022/12/12 03:15:24;;;;;;;83.55;32.33;;;-8.20;99.90;;;;;;4981084;28;20042;-75
2022/12/12 03:18:07;;;;;;;73.85;30.85;;;-8.20;99.90;;;;;;4979627;28;20089;-75
2022/12/12 03:20:45;;;;;;;76.05;31.55;;;-8.10;99.90;;;;;;4980155;28;20091;-76
2022/12/12 03:23:21;;;;;;;91.93;36.30;;;-8.10;99.90;;;;;;4980351;28;20088;-75
2022/12/12 03:26:05;;;;;;;93.90;35.42;;;-8.10;99.90;;;;;;4979103;28;20027;-75
2022/12/12 03:28:42;;;;;;;85.05;34.63;;;-8.00;99.90;;;;;;4977471;28;20027;-76
2022/12/12 03:31:10;;;;;;;96.75;38.75;;;-8.00;99.90;;;;;;4979450;28;20086;-76
2022/12/12 03:33:44;;;;;;;84.10;33.45;;;-7.90;99.90;;;;;;4979078;28;20054;-75
2022/12/12 03:36:24;;;;;;;95.25;36.22;;;-7.90;99.90;;;;;;4977298;28;20066;-76
2022/12/12 03:38:58;;;;;;;88.75;34.28;;;-7.90;99.90;;;;;;4979185;28;20027;-76
2022/12/12 03:41:35;;;;;;;85.07;33.47;;;-7.90;99.90;;;;;;4979987;28;20027;-75
2022/12/12 03:44:11;;;;;;;86.32;34.17;;;-7.90;99.90;;;;;;4978737;28;20031;-76
2022/12/12 03:46:56;;;;;;;83.47;36.13;;;-7.90;99.90;;;;;;4980428;28;20042;-76
2022/12/12 03:49:53;;;;;;;78.38;33.42;;;-7.90;99.90;;;;;;4980015;28;20027;-75
2022/12/12 03:52:45;;;;;;;75.55;31.77;;;-8.00;99.90;;;;;;4980076;28;20405;-75
2022/12/12 03:55:44;;;;;;;82.75;33.05;;;-7.90;99.90;;;;;;4971835;28;20039;-75
2022/12/12 03:58:36;;;;;;;81.50;32.63;;;-8.00;99.90;;;;;;4981991;28;20039;-76
2022/12/12 04:01:06;;;;;;;80.35;31.48;;;-8.00;99.90;;;;;;4982587;28;20109;-75
2022/12/12 04:03:41;;;;;;;81.35;32.05;;;-8.00;99.90;;;;;;4981956;28;20073;-75
2022/12/12 04:06:32;;;;;;;78.03;32.97;;;-8.00;99.90;;;;;;4981700;28;20078;-76
2022/12/12 04:15:17;;;;;;;78.63;30.67;;;-8.10;99.90;;;;;;4967156;29;20093;-75
2022/12/12 04:17:48;;;;;;;81.07;33.45;;;-8.00;99.90;;;;;;4968266;28;20108;-76
2022/12/12 04:23:49;;;;;;;81.30;32.65;;;-7.90;99.90;;;;;;4968887;28;20050;-76
2022/12/12 04:26:39;;;;;;;75.03;30.40;;;-7.70;99.90;;;;;;4938073;29;20042;-76
2022/12/12 04:29:22;;;;;;;80.28;31.95;;;-7.70;99.90;;;;;;4968503;28;20020;-75
2022/12/12 04:31:58;;;;;;;89.20;33.78;;;-7.50;99.90;;;;;;4970187;28;20027;-75
2022/12/12 04:34:30;;;;;;;88.43;35.38;;;-7.40;99.90;;;;;;4969211;28;20066;-76
2022/12/12 04:36:56;;;;;;;84.65;33.15;;;-7.30;99.90;;;;;;4970310;29;20030;-75
2022/12/12 04:39:23;;;;;;;82.93;33.80;;;-7.30;99.90;;;;;;4971842;28;20027;-75
2022/12/12 04:41:51;;;;;;;81.32;33.05;;;-7.30;99.90;;;;;;4972009;28;20027;-75
2022/12/12 04:44:20;;;;;;;80.68;32.95;;;-7.20;99.90;;;;;;4970216;29;20024;-76
2022/12/12 04:46:49;;;;;;;99.47;34.65;;;-7.20;99.90;;;;;;4955558;28;20019;-77
2022/12/12 04:49:19;;;;;;;83.63;34.55;;;-7.10;99.90;;;;;;4952688;29;20130;-76
2022/12/12 04:51:50;;;;;;;83.50;33.63;;;-7.10;99.90;;;;;;4954104;29;20023;-75
2022/12/12 04:54:24;;;;;;;89.68;35.58;;;-7.10;99.90;;;;;;4953053;29;20063;-76
2022/12/12 04:56:55;;;;;;;94.30;35.15;;;-7.00;99.90;;;;;;4962829;28;20119;-76
2022/12/12 04:59:21;;;;;;;94.85;33.63;;;-6.90;99.90;;;;;;4973835;29;20023;-76
2022/12/12 05:01:57;;;;;;;88.57;34.17;;;-6.80;99.90;;;;;;4975128;29;20027;-75
2022/12/12 05:04:48;;;;;;;100.57;37.45;;;-6.70;99.90;;;;;;4974251;29;20063;-75
2022/12/12 05:07:25;;;;;;;81.18;32.63;;;-6.60;99.90;;;;;;4973976;28;20055;-76
2022/12/12 05:09:51;;;;;;;85.22;32.35;;;-6.50;99.90;;;;;;4974904;29;20031;-75
2022/12/12 05:12:17;;;;;;;81.18;34.03;;;-6.40;99.90;;;;;;4975397;28;20038;-75
2022/12/12 05:14:42;;;;;;;84.32;33.67;;;-6.30;99.90;;;;;;4976100;28;20050;-76
2022/12/12 05:17:13;;;;;;;89.70;36.80;;;-6.20;99.90;;;;;;4989716;28;20060;-75
2022/12/12 05:19:39;;;;;;;88.00;34.42;;;-6.20;99.90;;;;;;4973917;28;20048;-75
2022/12/12 05:22:04;;;;;;;83.30;35.63;;;-6.10;99.90;;;;;;4972140;28;20051;-76
2022/12/12 05:24:30;;;;;;;89.45;37.35;;;-6.00;99.90;;;;;;4972479;28;20050;-76
2022/12/12 05:26:58;;;;;;;95.25;37.90;;;-6.00;99.90;;;;;;4973335;28;20025;-76
2022/12/12 05:29:23;;;;;;;99.53;37.80;;;-5.90;99.90;;;;;;4972078;29;20102;-76
2022/12/12 05:31:49;;;;;;;100.10;35.85;;;-5.90;99.90;;;;;;4973105;28;20027;-76
2022/12/12 05:34:14;;;;;;;97.03;39.33;;;-5.90;99.90;;;;;;4973558;28;20031;-76
2022/12/12 05:36:40;;;;;;;97.57;37.92;;;-5.80;99.90;;;;;;4974507;28;20035;-75
2022/12/12 05:39:06;;;;;;;87.88;35.92;;;-5.70;99.90;;;;;;4990108;28;20030;-75
2022/12/12 05:41:31;;;;;;;94.07;38.40;;;-5.70;99.90;;;;;;4974653;28;20061;-76
2022/12/12 05:43:57;;;;;;;91.60;35.47;;;-5.60;99.90;;;;;;4972964;29;20031;-75
2022/12/12 05:46:22;;;;;;;102.63;40.22;;;-5.60;99.90;;;;;;4987722;28;20035;-75
2022/12/12 05:48:49;;;;;;;101.15;37.13;;;-5.50;99.90;;;;;;4972271;28;20027;-76
2022/12/12 05:51:18;;;;;;;103.68;41.15;;;-5.50;99.90;;;;;;4971798;28;20000;-77
2022/12/12 05:53:44;;;;;;;100.60;38.10;;;-5.50;99.90;;;;;;4971248;28;20035;-75
2022/12/12 05:56:11;;;;;;;99.88;38.28;;;-5.50;99.90;;;;;;4971573;28;20155;-75
2022/12/12 05:58:37;;;;;;;102.47;40.38;;;-5.50;99.90;;;;;;4970492;28;20079;-76
2022/12/12 06:01:04;;;;;;;103.57;39.15;;;-5.50;99.90;;;;;;4971465;28;20034;-76
2022/12/12 06:03:30;;;;;;;96.88;36.90;;;-5.50;99.90;;;;;;4970891;28;20091;-76
2022/12/12 06:05:56;;;;;;;98.40;37.85;;;-5.50;99.90;;;;;;4969747;28;20102;-76
2022/12/12 06:08:21;;;;;;;98.38;36.45;;;-5.30;99.90;;;;;;4986065;28;20054;-75
2022/12/12 06:10:47;;;;;;;96.57;37.30;;;-5.30;99.90;;;;;;4986091;28;20050;-76
2022/12/12 06:13:12;;;;;;;87.05;34.65;;;-5.30;99.90;;;;;;4971283;28;20042;-76
2022/12/12 06:15:39;;;;;;;98.20;36.03;;;-5.20;99.90;;;;;;4971271;28;20035;-75
2022/12/12 06:18:06;;;;;;;95.10;35.40;;;-5.10;99.90;;;;;;4970886;28;20015;-76
2022/12/12 06:20:31;;;;;;;104.60;39.53;;;-5.10;99.90;;;;;;4972389;28;20546;-76
2022/12/12 06:22:57;;;;;;;87.53;36.85;;;-5.00;99.90;;;;;;4972780;28;20027;-76
2022/12/12 06:25:23;;;;;;;95.53;37.45;;;-5.00;99.90;;;;;;4988037;28;20047;-76
2022/12/12 06:27:48;;;;;;;82.55;33.08;;;-5.00;99.90;;;;;;4972554;28;20027;-76
2022/12/12 06:30:14;;;;;;;82.03;32.60;;;-5.10;99.90;;;;;;4969652;28;20035;-76
2022/12/12 06:32:40;;;;;;;91.30;34.13;;;-5.10;99.90;;;;;;4968020;29;20031;-76
2022/12/12 06:35:05;;;;;;;85.72;32.42;;;-5.10;99.90;;;;;;4968823;28;20031;-76
2022/12/12 06:37:31;;;;;;;88.90;34.60;;;-5.20;99.90;;;;;;4969754;29;20483;-76
2022/12/12 06:39:59;;;;;;;80.90;34.95;;;-5.20;99.90;;;;;;4970259;28;20031;-76
2022/12/12 06:42:25;;;;;;;90.45;34.20;;;-5.20;99.90;;;;;;4968965;29;20020;-76
2022/12/12 06:44:50;;;;;;;88.18;32.63;;;-5.20;99.90;;;;;;4969805;28;20031;-76
2022/12/12 06:47:16;;;;;;;88.07;35.63;;;-5.20;99.90;;;;;;4970414;28;20094;-76
2022/12/12 06:49:41;;;;;;;95.28;35.55;;;-5.20;99.90;;;;;;4971320;28;20034;-76
2022/12/12 06:52:07;;;;;;;92.07;35.53;;;-5.00;99.90;;;;;;4973208;28;20023;-76
2022/12/12 06:54:32;;;;;;;82.28;33.80;;;-4.90;99.90;;;;;;4989789;28;20047;-75
2022/12/12 06:56:58;;;;;;;85.75;32.25;;;-4.90;99.90;;;;;;4990932;28;20042;-76
2022/12/12 06:59:23;;;;;;;95.43;33.47;;;-4.90;99.90;;;;;;4987134;28;20030;-76
2022/12/12 07:01:49;;;;;;;88.18;33.15;;;-4.80;99.90;;;;;;4969551;28;20023;-75
2022/12/12 07:04:15;;;;;;;87.07;33.15;;;-4.70;99.90;;;;;;4964797;28;20031;-76
2022/12/12 07:06:40;;;;;;;85.00;33.28;;;-4.60;99.90;;;;;;4956267;29;20023;-76
2022/12/12 07:09:07;;;;;;;77.82;31.98;;;-4.50;99.90;;;;;;4957345;28;20494;-75
2022/12/12 07:11:32;;;;;;;82.90;31.50;;;-4.40;99.90;;;;;;4957524;28;20027;-76
2022/12/12 07:13:58;;;;;;;73.97;29.90;;;-4.40;99.90;;;;;;4956192;28;20035;-76
2022/12/12 07:16:24;;;;;;;76.88;30.92;;;-4.30;99.90;;;;;;4957569;28;20023;-77
2022/12/12 07:18:50;;;;;;;62.70;26.13;;;-4.20;99.90;;;;;;4959579;28;20023;-75
2022/12/12 07:21:18;;;;;;;71.25;30.35;;;-4.10;99.90;;;;;;4955427;29;20019;-75
2022/12/12 07:23:44;;;;;;;78.55;29.60;;;-4.10;99.90;;;;;;4955950;28;20020;-75
2022/12/12 07:26:21;;;;;;;68.53;31.15;;;-4.00;99.90;;;;;;4954716;29;20019;-76
2022/12/12 07:28:48;;;;;;;63.22;28.40;;;-4.00;99.90;;;;;;4955561;28;20055;-75
2022/12/12 07:31:17;;;;;;;76.10;29.02;;;-4.00;99.90;;;;;;4954609;29;20066;-76
2022/12/12 07:33:43;;;;;;;70.93;30.35;;;-3.90;99.90;;;;;;4957070;28;20027;-76
2022/12/12 07:36:08;;;;;;;63.15;27.70;;;-3.80;99.90;;;;;;4955325;28;20106;-76
2022/12/12 07:38:35;;;;;;;60.90;27.25;;;-3.80;99.90;;;;;;4962036;28;20098;-78
2022/12/12 07:41:06;;;;;;;75.07;32.25;;;-3.80;99.90;;;;;;4995763;28;20042;-77
2022/12/12 07:43:33;;;;;;;77.90;32.13;;;-3.70;99.90;;;;;;4979128;28;20015;-77
2022/12/12 07:45:59;;;;;;;68.38;28.42;;;-3.70;99.90;;;;;;4979833;28;20091;-76
2022/12/12 07:48:27;;;;;;;60.67;27.60;;;-3.70;99.90;;;;;;4978981;28;20046;-75
2022/12/12 07:50:53;;;;;;;64.72;27.88;;;-3.60;99.90;;;;;;4960212;28;20028;-75
2022/12/12 07:53:18;;;;;;;62.67;28.50;;;-3.50;99.90;;;;;;4959000;28;20122;-76
2022/12/12 07:55:44;;;;;;;54.50;25.70;;;-3.50;99.90;;;;;;4959687;28;20039;-75
2022/12/12 07:58:09;;;;;;;60.83;27.42;;;-3.30;99.90;;;;;;4959347;28;20059;-75
2022/12/12 08:00:35;;;;;;;68.13;28.80;;;-3.30;99.90;;;;;;4959385;28;20027;-75
2022/12/12 08:03:01;;;;;;;59.20;27.50;;;-3.20;99.90;;;;;;4959458;28;20030;-75
2022/12/12 08:05:27;;;;;;;64.57;30.40;;;-3.10;99.90;;;;;;4958523;28;20019;-75
2022/12/12 08:07:52;;;;;;;63.25;28.80;;;-3.00;99.90;;;;;;4959335;28;20050;-75
2022/12/12 08:10:18;;;;;;;62.13;29.65;;;-2.90;99.90;;;;;;4959368;28;20078;-75
2022/12/12 08:12:43;;;;;;;65.15;28.80;;;-2.90;99.90;;;;;;4959302;28;20034;-75
2022/12/12 08:15:15;;;;;;;56.75;25.13;;;-2.80;99.90;;;;;;5022870;23;20060;-66
2022/12/12 08:17:40;;;;;;;54.92;24.48;;;-2.80;99.90;;;;;;5036777;28;20032;-66
2022/12/12 08:20:06;;;;;;;62.63;27.40;;;-2.80;99.90;;;;;;5035877;28;20025;-66
2022/12/12 08:22:32;;;;;;;64.43;28.65;;;-2.70;99.90;;;;;;5036518;28;20017;-66
2022/12/12 08:24:57;;;;;;;62.58;27.48;;;-2.60;99.90;;;;;;5007273;28;20084;-66
2022/12/12 08:27:23;;;;;;;60.53;26.58;;;-2.60;99.90;;;;;;4996974;28;20073;-66
2022/12/12 08:29:51;;;;;;;54.45;27.00;;;-2.60;99.90;;;;;;4996764;28;20100;-66
2022/12/12 08:32:17;;;;;;;58.95;26.75;;;-2.60;99.90;;;;;;4996866;28;20417;-66
2022/12/12 08:34:42;;;;;;;74.68;27.35;;;-2.60;99.90;;;;;;5002474;28;20040;-67
2022/12/12 08:37:08;;;;;;;55.75;27.98;;;-2.50;99.90;;;;;;5015780;28;20021;-66
2022/12/12 08:39:33;;;;;;;59.30;28.27;;;-2.60;99.90;;;;;;5016557;28;20473;-66
2022/12/12 08:41:59;;;;;;;53.53;26.08;;;-2.50;99.90;;;;;;5016328;28;20028;-66
2022/12/12 08:44:24;;;;;;;56.90;27.20;;;-2.40;99.90;;;;;;5016450;28;20105;-66
2022/12/12 08:46:50;;;;;;;56.13;27.38;;;-2.40;99.90;;;;;;5015926;28;20496;-66
2022/12/12 08:49:16;;;;;;;51.85;25.45;;;-2.40;99.90;;;;;;5016434;28;20025;-66
2022/12/12 08:51:42;;;;;;;52.78;25.65;;;-2.30;99.90;;;;;;5016009;28;20202;-66
2022/12/12 08:54:10;;;;;;;54.15;25.05;;;-2.20;99.90;;;;;;5015949;28;20509;-66
2022/12/12 08:56:36;;;;;;;61.08;27.60;;;-2.20;99.90;;;;;;5016731;28;20156;-66
2022/12/12 08:59:01;;;;;;;62.03;27.55;;;-2.10;99.90;;;;;;5015031;28;20545;-66
2022/12/12 09:01:27;;;;;;;53.25;25.85;;;-2.20;99.90;;;;;;5016216;28;20026;-66
2022/12/12 09:03:54;;;;;;;54.53;26.23;;;-2.10;99.90;;;;;;5015845;28;20021;-66
2022/12/12 09:06:21;;;;;;;59.17;26.83;;;-2.10;99.90;;;;;;5015693;28;20116;-66
2022/12/12 09:08:48;;;;;;;56.00;25.23;;;-2.00;99.90;;;;;;5015803;28;20029;-66
2022/12/12 09:11:15;;;;;;;59.17;26.65;;;-2.00;99.90;;;;;;5015461;28;20030;-66
2022/12/12 09:13:42;;;;;;;60.13;27.58;;;-2.00;99.90;;;;;;5015733;28;20034;-66
2022/12/12 09:16:09;;;;;;;53.30;26.52;;;-2.00;99.90;;;;;;5015521;28;20044;-66
2022/12/12 09:18:35;;;;;;;54.13;26.38;;;-2.00;99.90;;;;;;5015458;28;20080;-66
2022/12/12 09:21:01;;;;;;;44.10;22.85;;;-2.00;99.90;;;;;;5015303;28;20033;-66
2022/12/12 09:23:27;;;;;;;46.50;24.17;;;-1.90;99.90;;;;;;5015544;28;20021;-66
2022/12/12 09:25:53;;;;;;;56.45;27.27;;;-1.90;99.90;;;;;;5015687;28;20022;-66
2022/12/12 09:28:21;;;;;;;57.00;25.45;;;-1.90;99.90;;;;;;5015462;28;20473;-66
2022/12/12 09:30:47;;;;;;;61.50;26.02;;;-1.90;99.90;;;;;;5015384;28;20034;-66
2022/12/12 09:33:13;;;;;;;52.03;25.13;;;-1.90;99.90;;;;;;5015347;28;20052;-66
2022/12/12 09:35:39;;;;;;;61.53;26.80;;;-1.90;99.90;;;;;;5015395;28;20034;-66
2022/12/12 09:38:05;;;;;;;52.35;24.75;;;-1.80;99.90;;;;;;5015099;28;20040;-66
2022/12/12 09:40:52;;;;;;;52.67;24.25;;;-1.80;99.90;;;;;;5015492;28;20429;-66
2022/12/12 09:43:21;;;;;;;55.42;25.77;;;-1.90;99.90;;;;;;5015350;28;20084;-66
2022/12/12 09:45:47;;;;;;;49.10;23.15;;;-1.90;99.90;;;;;;5015207;28;20026;-66
2022/12/12 09:48:45;;;;;;;45.17;23.90;;;-1.90;99.90;;;;;;5015281;28;20022;-66
2022/12/12 09:51:12;;;;;;;48.88;23.70;;;-1.80;99.90;;;;;;5003993;28;20030;-66
2022/12/12 09:53:40;;;;;;;54.10;25.52;;;-1.70;99.90;;;;;;5014879;28;20022;-66
2022/12/12 09:56:23;;;;;;;47.65;25.27;;;-1.70;99.90;;;;;;5014323;28;20121;-66
2022/12/12 09:59:08;;;;;;;59.15;26.50;;;-1.60;99.90;;;;;;5015117;28;20049;-66
2022/12/12 10:01:40;;;;;;;46.80;22.73;;;-1.50;99.90;;;;;;5015141;28;20179;-65
2022/12/12 10:04:36;;;;;;;56.05;26.92;;;-1.40;99.90;;;;;;5014986;28;20017;-66
2022/12/12 10:07:25;;;;;;;55.00;27.75;;;-1.30;99.90;;;;;;5014988;28;20034;-66
2022/12/12 10:10:24;;;;;;;51.42;26.58;;;-1.20;99.90;;;;;;5013502;28;20080;-66
2022/12/12 10:12:51;;;;;;;53.40;24.73;;;-1.00;99.90;;;;;;5014595;28;20026;-66
2022/12/12 10:15:32;;;;;;;59.97;26.33;;;-0.90;99.90;;;;;;5014499;28;20100;-66
2022/12/12 10:18:02;;;;;;;52.55;25.30;;;-1.00;99.90;;;;;;5014480;28;20037;-66
2022/12/12 10:20:31;;;;;;;52.53;26.63;;;-0.90;99.90;;;;;;5013908;28;20128;-67
2022/12/12 10:23:20;;;;;;;50.90;26.35;;;-0.80;99.90;;;;;;4996324;28;20026;-67
2022/12/12 10:25:51;;;;;;;62.70;27.95;;;-0.90;99.90;;;;;;4994685;28;20026;-66
2022/12/12 10:28:19;;;;;;;64.70;27.67;;;-0.90;99.90;;;;;;4994950;28;20199;-66
2022/12/12 10:31:03;;;;;;;50.53;25.50;;;-0.90;99.90;;;;;;4994194;28;20038;-66
2022/12/12 10:34:00;;;;;;;53.88;25.50;;;-0.90;99.90;;;;;;4994954;28;20072;-66
2022/12/12 10:36:47;;;;;;;56.13;25.60;;;-0.80;99.90;;;;;;4994722;28;20401;-66
2022/12/12 10:39:34;;;;;;;57.83;26.10;;;-0.80;99.90;;;;;;5012141;28;20026;-66
2022/12/12 10:42:18;;;;;;;57.78;27.02;;;-0.70;99.90;;;;;;5013966;28;20034;-66
2022/12/12 10:44:58;;;;;;;53.60;26.27;;;-0.70;99.90;;;;;;5014250;28;20018;-66
2022/12/12 10:47:24;;;;;;;53.00;26.45;;;-0.70;99.90;;;;;;5013708;28;20029;-66
2022/12/12 10:49:57;;;;;;;49.72;24.42;;;-0.80;99.90;;;;;;5013877;28;20069;-66
2022/12/12 10:52:22;;;;;;;57.95;25.73;;;-0.90;99.90;;;;;;5014100;28;20034;-66
2022/12/12 10:54:53;;;;;;;49.53;24.45;;;-0.90;99.90;;;;;;5014110;28;20029;-66
2022/12/12 10:57:20;;;;;;;48.75;23.70;;;-0.90;99.90;;;;;;5012894;28;20121;-66
2022/12/12 10:59:57;;;;;;;49.10;24.63;;;-0.80;99.90;;;;;;5014087;28;20033;-66
2022/12/12 11:02:41;;;;;;;53.22;25.02;;;-0.80;99.90;;;;;;5013965;28;20061;-66
2022/12/12 11:05:29;;;;;;;46.17;23.27;;;-0.80;99.90;;;;;;5013690;28;20025;-65
2022/12/12 11:08:01;;;;;;;48.83;24.50;;;-0.80;99.90;;;;;;5012717;28;20410;-66
2022/12/12 11:10:28;;;;;;;51.83;24.55;;;-0.80;99.90;;;;;;5013900;28;20026;-66
2022/12/12 11:12:56;;;;;;;44.03;23.42;;;-0.70;99.90;;;;;;5013911;28;20026;-66
2022/12/12 11:15:48;;;;;;;51.88;24.73;;;-0.70;99.90;;;;;;5013345;28;20087;-66
2022/12/12 11:18:15;;;;;;;47.90;23.33;;;-0.60;99.90;;;;;;5012885;28;20061;-66
2022/12/12 11:21:08;;;;;;;58.63;25.25;;;-0.60;99.90;;;;;;5013295;28;20075;-66
2022/12/12 11:23:38;;;;;;;51.40;25.27;;;-0.50;99.90;;;;;;5013577;28;20477;-66
2022/12/12 11:26:09;;;;;;;48.65;24.00;;;-0.40;99.90;;;;;;5013748;28;20026;-66
2022/12/12 11:28:37;;;;;;;60.20;26.40;;;-0.30;99.90;;;;;;5013502;28;20026;-66
2022/12/12 11:31:10;;;;;;;51.95;24.65;;;-0.20;99.90;;;;;;5012885;28;20389;-66
2022/12/12 11:33:51;;;;;;;47.85;24.30;;;-0.10;99.90;;;;;;5013703;28;20379;-66
2022/12/12 11:36:39;;;;;;;52.78;24.98;;;-0.10;99.90;;;;;;5013699;28;20433;-65
2022/12/12 11:39:31;;;;;;;56.88;24.23;;;0.00;99.90;;;;;;5013657;28;20030;-66
2022/12/12 11:41:58;;;;;;;49.05;22.65;;;0.00;99.90;;;;;;5012841;28;20057;-66
2022/12/12 11:44:24;;;;;;;52.88;24.42;;;0.10;99.90;;;;;;5013529;28;20258;-66
2022/12/12 11:46:50;;;;;;;51.83;26.20;;;0.20;99.90;;;;;;5013551;28;20156;-66
2022/12/12 11:49:18;;;;;;;46.90;24.55;;;0.30;99.90;;;;;;5013240;28;20100;-66
2022/12/12 11:51:43;;;;;;;46.55;23.10;;;0.50;99.90;;;;;;5013215;28;20088;-66
2022/12/12 11:54:25;;;;;;;39.33;21.23;;;0.60;99.90;;;;;;5012896;28;20057;-66
2022/12/12 11:57:04;;;;;;;39.28;20.83;;;0.70;99.90;;;;;;5013482;28;20156;-66
2022/12/12 11:59:54;;;;;;;40.55;19.17;;;0.80;99.90;;;;;;5013108;28;20474;-66
2022/12/12 12:02:41;;;;;;;36.92;19.45;;;0.80;99.90;;;;;;5013475;28;20022;-66
2022/12/12 12:05:43;;;;;;;40.28;19.02;;;0.90;99.90;;;;;;5013350;28;20022;-66
2022/12/12 12:08:25;;;;;;;34.40;18.48;;;1.10;99.90;;;;;;5013399;28;20034;-66
2022/12/12 12:11:11;;;;;;;37.95;19.02;;;1.20;99.90;;;;;;5013409;28;20026;-66
2022/12/12 12:13:59;;;;;;;35.85;19.23;;;1.30;99.90;;;;;;5013410;28;20037;-66
2022/12/12 12:16:44;;;;;;;35.30;17.77;;;1.40;99.90;;;;;;5012554;28;20065;-67
2022/12/12 12:19:38;;;;;;;35.95;18.50;;;1.60;99.90;;;;;;5013297;28;20026;-66
2022/12/12 12:22:24;;;;;;;36.35;19.13;;;1.60;99.90;;;;;;5013016;28;20030;-66
2022/12/12 12:25:13;;;;;;;33.28;16.95;;;1.80;99.90;;;;;;5012956;28;20520;-66
2022/12/12 12:28:02;;;;;;;36.13;18.80;;;1.90;99.90;;;;;;5012586;28;20038;-66
2022/12/12 12:30:41;;;;;;;28.23;16.83;;;2.00;99.90;;;;;;5012932;28;20026;-66
2022/12/12 12:33:36;;;;;;;29.60;17.60;;;2.20;99.90;;;;;;5013669;28;20045;-66
2022/12/12 12:36:41;;;;;;;33.72;18.33;;;2.50;99.90;;;;;;5016483;28;20022;-67
2022/12/12 12:39:14;;;;;;;24.50;15.57;;;2.80;99.90;;;;;;5016411;28;20036;-66
2022/12/12 12:42:07;;;;;;;30.43;16.17;;;3.00;99.90;;;;;;5016459;28;20101;-66
2022/12/12 12:44:45;;;;;;;29.65;15.55;;;3.20;99.90;;;;;;5016259;28;20257;-66
2022/12/12 12:47:32;;;;;;;31.40;16.05;;;3.00;99.90;;;;;;5016562;28;20117;-66
2022/12/12 12:50:16;;;;;;;37.80;17.02;;;3.00;99.90;;;;;;5016299;28;20033;-66
2022/12/12 12:52:59;;;;;;;27.52;15.20;;;2.80;99.90;;;;;;5015871;28;20045;-66
2022/12/12 12:55:32;;;;;;;26.98;14.65;;;2.70;99.90;;;;;;4998000;28;20462;-67
2022/12/12 12:57:59;;;;;;;30.35;14.27;;;2.70;99.90;;;;;;5015473;28;20034;-67
2022/12/12 13:00:28;;;;;;;30.00;16.15;;;2.50;99.90;;;;;;5015984;28;20420;-66
2022/12/12 13:03:03;;;;;;;28.23;15.40;;;2.40;99.90;;;;;;5015553;28;20041;-67
2022/12/12 13:05:41;;;;;;;26.83;15.18;;;2.20;99.90;;;;;;5016127;28;20029;-67
2022/12/12 13:08:19;;;;;;;29.63;15.93;;;2.00;99.90;;;;;;5015867;28;20030;-66